Mistral — TCCH — position and weather

sailwx.info

Track history (hours):
 
Tides and Currents Weather Stations Pressure Air Temp Water Temp Dewpoint Dewpoint Depression Visibility Wind Speed Wind Dir Waves Ship Positions

Mistral

Last reported at 2015-Apr-01 04:34 UTC. Time now 2015-Apr-01 05:52 UTC.
Position N 36°40' E 013°52'.

Length 130 m; draft 6.8 m.

Type: Cargo ship. MMSI: 271000615.

Date/timePositionNaut miles runAvg speedWind from/ knotsBaromVisibWave heightAir tempDewpointWater temp
2015-Apr-01 04:34N 36°40' E 013°52'10 9.0
2015-Apr-01 03:26N 36°44' E 013°41'9 8.8
2015-Apr-01 02:21N 36°48' E 013°30'  
2015-Mar-29 04:06N 36°29' E 000°24'910.7
2015-Mar-29 03:15N 36°26' E 000°13'8 9.9
2015-Mar-29 02:28N 36°24' E 000°04'21 9.9
2015-Mar-29 00:21N 36°20' W 000°22'7 9.5
2015-Mar-28 23:33N 36°18' W 000°31'228 9.3
2015-Mar-27 23:07N 35°59' W 005°12'712.7
2015-Mar-27 22:33N 35°58' W 005°21'273 7.8
2015-Mar-26 11:29N 38°32' W 010°04'10 8.8
2015-Mar-26 10:21N 38°42' W 010°07'  
Track history (hours):
 
Tides and Currents Weather Stations Pressure Air Temp Water Temp Dewpoint Dewpoint Depression Visibility Wind Speed Wind Dir Waves Ship Positions

Mistral

Last reported at 2015-Apr-01 04:34 UTC. Time now 2015-Apr-01 05:52 UTC.
Position N 36°40' E 013°52'.

Length 130 m; draft 6.8 m.

Type: Cargo ship. MMSI: 271000615.

Date/timePositionNaut miles runAvg speedWind from/ knotsBaromVisibWave heightAir tempDewpointWater temp
2015-Apr-01 04:34N 36°40' E 013°52'10 9.0
2015-Apr-01 03:26N 36°44' E 013°41'9 8.8
2015-Apr-01 02:21N 36°48' E 013°30'  
2015-Mar-29 04:06N 36°29' E 000°24'910.7
2015-Mar-29 03:15N 36°26' E 000°13'8 9.9
2015-Mar-29 02:28N 36°24' E 000°04'21 9.9
2015-Mar-29 00:21N 36°20' W 000°22'7 9.5
2015-Mar-28 23:33N 36°18' W 000°31'228 9.3
2015-Mar-27 23:07N 35°59' W 005°12'712.7
2015-Mar-27 22:33N 35°58' W 005°21'273 7.8
2015-Mar-26 11:29N 38°32' W 010°04'10 8.8
2015-Mar-26 10:21N 38°42' W 010°07'  

Dump ship's entire track history